首页
METAR-TAF:

METAR-TAF

机场 :

Volk Field Air National Guard Base

Camp Douglas, 威斯康辛州, 美国

纬度: 43-56N, 经度: 090-16W, 海拔: 277米

当前天气观测

该预报发布于17分钟前的08:11 UTC
静风
温度 11°C
湿度 100%
气压 1015 hPa
能見度: 4.4公里
天空无云
轻雾

METAR: KVOK 190811Z AUTO 00000KT 2 3/4SM BR CLR 11/11 A2997 RMK AO2 VIS 5/8V2 3/4 SLP150 PWINO TSNO $

时间: 03:28 (08:28 UTC)


TAF: 丢失

超过4000个机场的气象观测和天气预报(METAR&TAF报告)。

可查询的气象台以黄色和红色小点在地图上表示。

将鼠标移到小点上方,可查看气象台名称。

然后点击查看天气观测和预报。

如需切换地图:点击带黑十字的绿色按钮放大地图;点击带横线的绿色按钮缩小地图;或者点击绿色箭头查看邻近地区的地图。


METAR-TAF: